21°C Temp
19°C Dewpoint
88% Humidity
Temperature
16 KM/H
10 MPH
9 KTS
200°
South South
West

Wind Speed
Light Rain
Showers
Pressure 1016 (hPa) - 30 (in)
Visibility 6.2 (mi) - 10.0 (km)

Current Conditions
YWLM
Location Newcastle 18(km)
Metar :YWLM 101300Z AUTO 20009KT 9999 -RA NCD 21/19 Q1016
Tue 11th December 00:00 am

Airport
  Metar Aviation API Data Provided by https://www.checkwx.com/ PHP scripts by weather34.com ©2018